Patterson, Georgia
Current Conditions -  °F | °C
As of 11:15 PM on Thursday 27 Nov 2014 (Local Time) from KAYS Reporting Station
Clear Clear  
Wind Chill: 39°   Ceiling: Unl
Heat Index: 43°   Visibility: 10mi
Dew Point: 35°   Wind: 7mph
Humidity: 74%   Direction: 350°N
Pressure: 30.36"   Gusts: NA
Location:  31.39°N, 82.14°W
Report Text: KAYS 280415Z AUTO 35006KT 10SM CLR 06/02 A3036 RMK AO2 T00610018
Loading
Personal Weather Stations






























Interactive Weather Map New forecast layout! Learn more

10-Day Weather Forecast

Advertisements
Track Severe Weather on mobile